Aviation Digital Data Service (ADDS)

Output produced by METARs form (0354 UTC 26 April 2019)
found at http://www.aviationweather.gov/metar/data/
 
METAR text: KFFO 260256Z 18009KT 10SM -RA SCT027 BKN049 OVC085 16/15 A2961 RMK AO2A PK WND 20031/03 SLP028 P0017 60022 T01600150 55012
Conditions at: KFFO (WRIGHT PATTERSON, OH, US) observed 0256 UTC 26 April 2019
Temperature: 16.0°C (61°F)
Dewpoint: 15.0°C (59°F) [RH = 94%]
Pressure (altimeter): 29.61 inches Hg (1002.8 mb)
[Sea-level pressure: 1002.8 mb]
Winds: from the S (180 degrees) at 10 MPH (9 knots; 4.6 m/s)
Visibility: 10 or more miles (16+ km)
Ceiling: 4900 feet AGL
Clouds: scattered clouds at 2700 feet AGL
broken clouds at 4900 feet AGL
overcast cloud deck at 8500 feet AGL
Weather: -RA  (light rain)

METAR text: KFFO 260248Z 18010KT 10SM -RA SCT027 OVC080 16/15 A2961 RMK AO2A SCT V BKN SLP028
Conditions at: KFFO (WRIGHT PATTERSON, OH, US) observed 0248 UTC 26 April 2019
Temperature: 16.0°C (61°F)
Dewpoint: 15.0°C (59°F) [RH = 94%]
Pressure (altimeter): 29.61 inches Hg (1002.8 mb)
[Sea-level pressure: 1002.8 mb]
Winds: from the S (180 degrees) at 12 MPH (10 knots; 5.1 m/s)
Visibility: 10 or more miles (16+ km)
Ceiling: 8000 feet AGL
Clouds: scattered clouds at 2700 feet AGL
overcast cloud deck at 8000 feet AGL
Weather: -RA  (light rain)

METAR text: KFFO 260243Z 18011KT 9SM -RA BKN027 OVC049 16/15 A2961 RMK AO2A SLP028
Conditions at: KFFO (WRIGHT PATTERSON, OH, US) observed 0243 UTC 26 April 2019
Temperature: 16.0°C (61°F)
Dewpoint: 15.0°C (59°F) [RH = 94%]
Pressure (altimeter): 29.61 inches Hg (1002.8 mb)
[Sea-level pressure: 1002.8 mb]
Winds: from the S (180 degrees) at 13 MPH (11 knots; 5.7 m/s)
Visibility: 9 miles (14 km)
Ceiling: 2700 feet AGL
Clouds: broken clouds at 2700 feet AGL
overcast cloud deck at 4900 feet AGL
Weather: -RA  (light rain)

METAR text: KFFO 260217Z 21017G24KT 9SM -RA FEW002 BKN035 OVC049 17/15 A2962 RMK AO2A SLP031
Conditions at: KFFO (WRIGHT PATTERSON, OH, US) observed 0217 UTC 26 April 2019
Temperature: 17.0°C (63°F)
Dewpoint: 15.0°C (59°F) [RH = 88%]
Pressure (altimeter): 29.62 inches Hg (1003.1 mb)
[Sea-level pressure: 1003.1 mb]
Winds: from the SSW (210 degrees) at 20 MPH (17 knots; 8.7 m/s)
gusting to 28 MPH (24 knots; 12.3 m/s)
Visibility: 9 miles (14 km)
Ceiling: 3500 feet AGL
Clouds: few clouds at 200 feet AGL
broken clouds at 3500 feet AGL
overcast cloud deck at 4900 feet AGL
Weather: -RA  (light rain)

METAR text: KFFO 260204Z 20024G31KT 7SM -RA SCT002 BKN037 BKN049 OVC070 18/16 A2963 RMK AO2A PRESRR SLP034
Conditions at: KFFO (WRIGHT PATTERSON, OH, US) observed 0204 UTC 26 April 2019
Temperature: 18.0°C (64°F)
Dewpoint: 16.0°C (61°F) [RH = 88%]
Pressure (altimeter): 29.63 inches Hg (1003.5 mb)
[Sea-level pressure: 1003.4 mb]
Winds: from the SSW (200 degrees) at 28 MPH (24 knots; 12.3 m/s)
gusting to 36 MPH (31 knots; 15.9 m/s)
Visibility: 7 miles (11 km)
Ceiling: 3700 feet AGL
Clouds: scattered clouds at 200 feet AGL
broken clouds at 3700 feet AGL
broken clouds at 4900 feet AGL
overcast cloud deck at 7000 feet AGL
Weather: -RA  (light rain)

METAR text: KFFO 260156Z 16010G19KT 7SM -RA SCT042 BKN050 OVC075 18/16 A2960 RMK AO2A LTG DSNT SW SLP024 P0005 T01820156
Conditions at: KFFO (WRIGHT PATTERSON, OH, US) observed 0156 UTC 26 April 2019
Temperature: 18.2°C (65°F)
Dewpoint: 15.6°C (60°F) [RH = 85%]
Pressure (altimeter): 29.60 inches Hg (1002.5 mb)
[Sea-level pressure: 1002.4 mb]
Winds: from the SSE (160 degrees) at 12 MPH (10 knots; 5.1 m/s)
gusting to 22 MPH (19 knots; 9.8 m/s)
Visibility: 7 miles (11 km)
Ceiling: 5000 feet AGL
Clouds: scattered clouds at 4200 feet AGL
broken clouds at 5000 feet AGL
overcast cloud deck at 7500 feet AGL
Weather: -RA  (light rain)

METAR text: KFFO 260155Z 17011G19KT 7SM -RA SCT042 BKN050 BKN060 OVC075 18/16 A2960 RMK AO2A SLP024
Conditions at: KFFO (WRIGHT PATTERSON, OH, US) observed 0155 UTC 26 April 2019
Temperature: 18.0°C (64°F)
Dewpoint: 16.0°C (61°F) [RH = 88%]
Pressure (altimeter): 29.60 inches Hg (1002.5 mb)
[Sea-level pressure: 1002.4 mb]
Winds: from the S (170 degrees) at 13 MPH (11 knots; 5.7 m/s)
gusting to 22 MPH (19 knots; 9.8 m/s)
Visibility: 7 miles (11 km)
Ceiling: 5000 feet AGL
Clouds: scattered clouds at 4200 feet AGL
broken clouds at 5000 feet AGL
broken clouds at 6000 feet AGL
overcast cloud deck at 7500 feet AGL
Weather: -RA  (light rain)

METAR text: KFFO 260149Z 16011KT 10SM -RA FEW039 BKN050 OVC070 18/16 A2961 RMK AO2A SLP028
Conditions at: KFFO (WRIGHT PATTERSON, OH, US) observed 0149 UTC 26 April 2019
Temperature: 18.0°C (64°F)
Dewpoint: 16.0°C (61°F) [RH = 88%]
Pressure (altimeter): 29.61 inches Hg (1002.8 mb)
[Sea-level pressure: 1002.8 mb]
Winds: from the SSE (160 degrees) at 13 MPH (11 knots; 5.7 m/s)
Visibility: 10 or more miles (16+ km)
Ceiling: 5000 feet AGL
Clouds: few clouds at 3900 feet AGL
broken clouds at 5000 feet AGL
overcast cloud deck at 7000 feet AGL
Weather: -RA  (light rain)

METAR text: KFFO 260056Z 11006KT 7SM BKN070 OVC100 18/17 A2962 RMK AO2A SLP032 T01810171
Conditions at: KFFO (WRIGHT PATTERSON, OH, US) observed 0056 UTC 26 April 2019
Temperature: 18.1°C (65°F)
Dewpoint: 17.1°C (63°F) [RH = 94%]
Pressure (altimeter): 29.62 inches Hg (1003.1 mb)
[Sea-level pressure: 1003.2 mb]
Winds: from the ESE (110 degrees) at 7 MPH (6 knots; 3.1 m/s)
Visibility: 7 miles (11 km)
Ceiling: 7000 feet AGL
Clouds: broken clouds at 7000 feet AGL
overcast cloud deck at 10000 feet AGL
Weather: no significant weather observed at this time

METAR text: KFFO 252356Z 07003KT 7SM FEW045 BKN070 OVC085 18/18 A2964 RMK AO2A SLP038 60005 T01820175 10189 20176 57023
Conditions at: KFFO (WRIGHT PATTERSON, OH, US) observed 2356 UTC 25 April 2019
Temperature: 18.2°C (65°F)
Dewpoint: 17.5°C (64°F) [RH = 96%]
Pressure (altimeter): 29.64 inches Hg (1003.8 mb)
[Sea-level pressure: 1003.8 mb]
Winds: from the ENE (70 degrees) at 3 MPH (3 knots; 1.5 m/s)
Visibility: 7 miles (11 km)
Ceiling: 7000 feet AGL
Clouds: few clouds at 4500 feet AGL
broken clouds at 7000 feet AGL
overcast cloud deck at 8500 feet AGL
Weather: no significant weather observed at this time

METAR text: KFFO 252256Z 10005KT 7SM BKN070 OVC110 19/18 A2968 RMK AO2A SLP052 T01870177
Conditions at: KFFO (WRIGHT PATTERSON, OH, US) observed 2256 UTC 25 April 2019
Temperature: 18.7°C (66°F)
Dewpoint: 17.7°C (64°F) [RH = 94%]
Pressure (altimeter): 29.68 inches Hg (1005.2 mb)
[Sea-level pressure: 1005.2 mb]
Winds: from the E (100 degrees) at 6 MPH (5 knots; 2.6 m/s)
Visibility: 7 miles (11 km)
Ceiling: 7000 feet AGL
Clouds: broken clouds at 7000 feet AGL
overcast cloud deck at 11000 feet AGL
Weather: no significant weather observed at this time

METAR text: KFFO 252156Z 13003KT 7SM BKN080 OVC100 19/18 A2970 RMK AO2A SLP059 P0001 T01860176
Conditions at: KFFO (WRIGHT PATTERSON, OH, US) observed 2156 UTC 25 April 2019
Temperature: 18.6°C (65°F)
Dewpoint: 17.6°C (64°F) [RH = 94%]
Pressure (altimeter): 29.70 inches Hg (1005.8 mb)
[Sea-level pressure: 1005.9 mb]
Winds: from the SE (130 degrees) at 3 MPH (3 knots; 1.5 m/s)
Visibility: 7 miles (11 km)
Ceiling: 8000 feet AGL
Clouds: broken clouds at 8000 feet AGL
overcast cloud deck at 10000 feet AGL
Weather: no significant weather observed at this time

METAR text: KFFO 252142Z 13003KT 7SM BKN080 OVC100 19/18 A2971 RMK AO2A SLP062
Conditions at: KFFO (WRIGHT PATTERSON, OH, US) observed 2142 UTC 25 April 2019
Temperature: 19.0°C (66°F)
Dewpoint: 18.0°C (64°F) [RH = 94%]
Pressure (altimeter): 29.71 inches Hg (1006.2 mb)
[Sea-level pressure: 1006.2 mb]
Winds: from the SE (130 degrees) at 3 MPH (3 knots; 1.5 m/s)
Visibility: 7 miles (11 km)
Ceiling: 8000 feet AGL
Clouds: broken clouds at 8000 feet AGL
overcast cloud deck at 10000 feet AGL
Weather: no significant weather observed at this time

METAR text: KFFO 252056Z 08006KT 6SM -RA BR FEW003 BKN055 OVC090 19/17 A2971 RMK AO2A SLP062 P0003 60004 T01850173 57024
Conditions at: KFFO (WRIGHT PATTERSON, OH, US) observed 2056 UTC 25 April 2019
Temperature: 18.5°C (65°F)
Dewpoint: 17.3°C (63°F) [RH = 93%]
Pressure (altimeter): 29.71 inches Hg (1006.2 mb)
[Sea-level pressure: 1006.2 mb]
Winds: from the E (80 degrees) at 7 MPH (6 knots; 3.1 m/s)
Visibility: 6 miles (10 km)
Ceiling: 5500 feet AGL
Clouds: few clouds at 300 feet AGL
broken clouds at 5500 feet AGL
overcast cloud deck at 9000 feet AGL
Weather: -RA BR  (light rain, mist)

METAR text: KFFO 252052Z 09006KT 6SM -RA BR FEW023 BKN055 OVC090 19/17 A2972 RMK AO2A PRESFR SLP065
Conditions at: KFFO (WRIGHT PATTERSON, OH, US) observed 2052 UTC 25 April 2019
Temperature: 19.0°C (66°F)
Dewpoint: 17.0°C (63°F) [RH = 88%]
Pressure (altimeter): 29.72 inches Hg (1006.5 mb)
[Sea-level pressure: 1006.5 mb]
Winds: from the E (90 degrees) at 7 MPH (6 knots; 3.1 m/s)
Visibility: 6 miles (10 km)
Ceiling: 5500 feet AGL
Clouds: few clouds at 2300 feet AGL
broken clouds at 5500 feet AGL
overcast cloud deck at 9000 feet AGL
Weather: -RA BR  (light rain, mist)

METAR text: KFFO 252049Z 16003KT 6SM -RA BR FEW023 BKN055 OVC090 19/17 A2974 RMK AO2A SLP072
Conditions at: KFFO (WRIGHT PATTERSON, OH, US) observed 2049 UTC 25 April 2019
Temperature: 19.0°C (66°F)
Dewpoint: 17.0°C (63°F) [RH = 88%]
Pressure (altimeter): 29.74 inches Hg (1007.2 mb)
[Sea-level pressure: 1007.2 mb]
Winds: from the SSE (160 degrees) at 3 MPH (3 knots; 1.5 m/s)
Visibility: 6 miles (10 km)
Ceiling: 5500 feet AGL
Clouds: few clouds at 2300 feet AGL
broken clouds at 5500 feet AGL
overcast cloud deck at 9000 feet AGL
Weather: -RA BR  (light rain, mist)

METAR text: KFFO 251956Z 00000KT 10SM FEW009 SCT037 BKN070 OVC090 19/17 A2975 RMK AO2A SLP076 P0000 T01850166
Conditions at: KFFO (WRIGHT PATTERSON, OH, US) observed 1956 UTC 25 April 2019
Temperature: 18.5°C (65°F)
Dewpoint: 16.6°C (62°F) [RH = 89%]
Pressure (altimeter): 29.75 inches Hg (1007.5 mb)
[Sea-level pressure: 1007.6 mb]
Winds: calm
Visibility: 10 or more miles (16+ km)
Ceiling: 7000 feet AGL
Clouds: few clouds at 900 feet AGL
scattered clouds at 3700 feet AGL
broken clouds at 7000 feet AGL
overcast cloud deck at 9000 feet AGL
Weather: no significant weather observed at this time

METAR text: KFFO 251856Z 15003KT 7SM -RA FEW009 SCT047 18/16 A2977 RMK AO2A SLP083 P0001 T01830164
Conditions at: KFFO (WRIGHT PATTERSON, OH, US) observed 1856 UTC 25 April 2019
Temperature: 18.3°C (65°F)
Dewpoint: 16.4°C (62°F) [RH = 89%]
Pressure (altimeter): 29.77 inches Hg (1008.2 mb)
[Sea-level pressure: 1008.3 mb]
Winds: from the SSE (150 degrees) at 3 MPH (3 knots; 1.5 m/s)
Visibility: 7 miles (11 km)
Ceiling: at least 12,000 feet AGL
Clouds: few clouds at 900 feet AGL
scattered clouds at 4700 feet AGL
Weather: -RA  (light rain)

METAR text: KFFO 251826Z 16003KT 10SM SCT008 BKN047 18/16 A2978 RMK AO2A SLP086
Conditions at: KFFO (WRIGHT PATTERSON, OH, US) observed 1826 UTC 25 April 2019
Temperature: 18.0°C (64°F)
Dewpoint: 16.0°C (61°F) [RH = 88%]
Pressure (altimeter): 29.78 inches Hg (1008.5 mb)
[Sea-level pressure: 1008.6 mb]
Winds: from the SSE (160 degrees) at 3 MPH (3 knots; 1.5 m/s)
Visibility: 10 or more miles (16+ km)
Ceiling: 4700 feet AGL
Clouds: scattered clouds at 800 feet AGL
broken clouds at 4700 feet AGL
Weather: no significant weather observed at this time

METAR text: KFFO 251756Z 15004KT 7SM -RA OVC007 18/16 A2979 RMK AO2A SLP089 P0000 60004 T01750162 10175 20120 57013
Conditions at: KFFO (WRIGHT PATTERSON, OH, US) observed 1756 UTC 25 April 2019
Temperature: 17.5°C (64°F)
Dewpoint: 16.2°C (61°F) [RH = 92%]
Pressure (altimeter): 29.79 inches Hg (1008.9 mb)
[Sea-level pressure: 1008.9 mb]
Winds: from the SSE (150 degrees) at 5 MPH (4 knots; 2.1 m/s)
Visibility: 7 miles (11 km)
Ceiling: 700 feet AGL
Clouds: overcast cloud deck at 700 feet AGL
Weather: -RA  (light rain)

METAR text: KFFO 251724Z 13004KT 7SM BKN007 BKN012 OVC049 17/16 A2979 RMK AO2A BKN007 V SCT SLP089
Conditions at: KFFO (WRIGHT PATTERSON, OH, US) observed 1724 UTC 25 April 2019
Temperature: 17.0°C (63°F)
Dewpoint: 16.0°C (61°F) [RH = 94%]
Pressure (altimeter): 29.79 inches Hg (1008.9 mb)
[Sea-level pressure: 1008.9 mb]
Winds: from the SE (130 degrees) at 5 MPH (4 knots; 2.1 m/s)
Visibility: 7 miles (11 km)
Ceiling: 700 feet AGL
Clouds: broken clouds at 700 feet AGL
broken clouds at 1200 feet AGL
overcast cloud deck at 4900 feet AGL
Weather: no significant weather observed at this time

METAR text: KFFO 251656Z 15003KT 10SM BKN006 OVC012 17/16 A2980 RMK AO2A SLP093 P0002 T01660159
Conditions at: KFFO (WRIGHT PATTERSON, OH, US) observed 1656 UTC 25 April 2019
Temperature: 16.6°C (62°F)
Dewpoint: 15.9°C (61°F) [RH = 96%]
Pressure (altimeter): 29.80 inches Hg (1009.2 mb)
[Sea-level pressure: 1009.3 mb]
Winds: from the SSE (150 degrees) at 3 MPH (3 knots; 1.5 m/s)
Visibility: 10 or more miles (16+ km)
Ceiling: 600 feet AGL
Clouds: broken clouds at 600 feet AGL
overcast cloud deck at 1200 feet AGL
Weather: no significant weather observed at this time

METAR text: KFFO 251636Z 17004KT 7SM BKN004 OVC012 16/15 A2981 RMK AO2A BKN V OVC SLP096
Conditions at: KFFO (WRIGHT PATTERSON, OH, US) observed 1636 UTC 25 April 2019
Temperature: 16.0°C (61°F)
Dewpoint: 15.0°C (59°F) [RH = 94%]
Pressure (altimeter): 29.81 inches Hg (1009.6 mb)
[Sea-level pressure: 1009.6 mb]
Winds: from the S (170 degrees) at 5 MPH (4 knots; 2.1 m/s)
Visibility: 7 miles (11 km)
Ceiling: 400 feet AGL
Clouds: broken clouds at 400 feet AGL
overcast cloud deck at 1200 feet AGL
Weather: no significant weather observed at this time

METAR text: KFFO 251556Z 00000KT 6SM -RA BR OVC005 15/15 A2982 RMK AO2A SLP100 P0001 T01540148
Conditions at: KFFO (WRIGHT PATTERSON, OH, US) observed 1556 UTC 25 April 2019
Temperature: 15.4°C (60°F)
Dewpoint: 14.8°C (59°F) [RH = 96%]
Pressure (altimeter): 29.82 inches Hg (1009.9 mb)
[Sea-level pressure: 1010.0 mb]
Winds: calm
Visibility: 6 miles (10 km)
Ceiling: 500 feet AGL
Clouds: overcast cloud deck at 500 feet AGL
Weather: -RA BR  (light rain, mist)

METAR text: KFFO 251539Z 17003KT 5SM -RA BR OVC004 15/15 A2982 RMK AO2A CIG 003V006 SLP100
Conditions at: KFFO (WRIGHT PATTERSON, OH, US) observed 1539 UTC 25 April 2019
Temperature: 15.0°C (59°F)
Dewpoint: 15.0°C (59°F) [RH = 100%]
Pressure (altimeter): 29.82 inches Hg (1009.9 mb)
[Sea-level pressure: 1010.0 mb]
Winds: from the S (170 degrees) at 3 MPH (3 knots; 1.5 m/s)
Visibility: 5 miles ( 8 km)
Ceiling: 400 feet AGL
Clouds: overcast cloud deck at 400 feet AGL
Weather: -RA BR  (light rain, mist)

METAR text: KFFO 251456Z 00000KT 6SM -DZ BR OVC004 15/14 A2983 RMK AO2A SLP103 P0001 60001 T01480142 58006
Conditions at: KFFO (WRIGHT PATTERSON, OH, US) observed 1456 UTC 25 April 2019
Temperature: 14.8°C (59°F)
Dewpoint: 14.2°C (58°F) [RH = 96%]
Pressure (altimeter): 29.83 inches Hg (1010.2 mb)
[Sea-level pressure: 1010.3 mb]
Winds: calm
Visibility: 6 miles (10 km)
Ceiling: 400 feet AGL
Clouds: overcast cloud deck at 400 feet AGL
Weather: -DZ BR  (light drizzle, mist)

METAR text: KFFO 251436Z 00000KT 3SM -DZ BR OVC004 15/14 A2983 RMK AO2A SLP103
Conditions at: KFFO (WRIGHT PATTERSON, OH, US) observed 1436 UTC 25 April 2019
Temperature: 15.0°C (59°F)
Dewpoint: 14.0°C (57°F) [RH = 94%]
Pressure (altimeter): 29.83 inches Hg (1010.2 mb)
[Sea-level pressure: 1010.3 mb]
Winds: calm
Visibility: 3 miles ( 5 km)
Ceiling: 400 feet AGL
Clouds: overcast cloud deck at 400 feet AGL
Weather: -DZ BR  (light drizzle, mist)

METAR text: KFFO 251356Z 00000KT 7SM -RA OVC007 14/13 A2984 RMK AO2A CIG 005V009 SLP107 P0000 T01400129
Conditions at: KFFO (WRIGHT PATTERSON, OH, US) observed 1356 UTC 25 April 2019
Temperature: 14.0°C (57°F)
Dewpoint: 12.9°C (55°F) [RH = 93%]
Pressure (altimeter): 29.84 inches Hg (1010.6 mb)
[Sea-level pressure: 1010.7 mb]
Winds: calm
Visibility: 7 miles (11 km)
Ceiling: 700 feet AGL
Clouds: overcast cloud deck at 700 feet AGL
Weather: -RA  (light rain)

METAR text: KFFO 251256Z 00000KT 6SM -RA BR OVC007 13/11 A2985 RMK AO2A SLP110 P0000 T01270114
Conditions at: KFFO (WRIGHT PATTERSON, OH, US) observed 1256 UTC 25 April 2019
Temperature: 12.7°C (55°F)
Dewpoint: 11.4°C (53°F) [RH = 92%]
Pressure (altimeter): 29.85 inches Hg (1010.9 mb)
[Sea-level pressure: 1011.0 mb]
Winds: calm
Visibility: 6 miles (10 km)
Ceiling: 700 feet AGL
Clouds: overcast cloud deck at 700 feet AGL
Weather: -RA BR  (light rain, mist)

METAR text: KFFO 251244Z 00000KT 5SM -RA BR OVC007 12/11 A2985 RMK AO2A SLP111
Conditions at: KFFO (WRIGHT PATTERSON, OH, US) observed 1244 UTC 25 April 2019
Temperature: 12.0°C (54°F)
Dewpoint: 11.0°C (52°F) [RH = 94%]
Pressure (altimeter): 29.85 inches Hg (1010.9 mb)
[Sea-level pressure: 1011.1 mb]
Winds: calm
Visibility: 5 miles ( 8 km)
Ceiling: 700 feet AGL
Clouds: overcast cloud deck at 700 feet AGL
Weather: -RA BR  (light rain, mist)

METAR text: KFFO 251156Z 00000KT 6SM BR OVC007 12/11 A2985 RMK AO2A SLP110 60000 T01200107 10123 20115 50000
Conditions at: KFFO (WRIGHT PATTERSON, OH, US) observed 1156 UTC 25 April 2019
Temperature: 12.0°C (54°F)
Dewpoint: 10.7°C (51°F) [RH = 92%]
Pressure (altimeter): 29.85 inches Hg (1010.9 mb)
[Sea-level pressure: 1011.0 mb]
Winds: calm
Visibility: 6 miles (10 km)
Ceiling: 700 feet AGL
Clouds: overcast cloud deck at 700 feet AGL
Weather: BR  (mist)

METAR text: KFFO 251056Z 00000KT 6SM BR OVC007 12/10 A2984 RMK AO2A SLP107 P0000 T01150097
Conditions at: KFFO (WRIGHT PATTERSON, OH, US) observed 1056 UTC 25 April 2019
Temperature: 11.5°C (53°F)
Dewpoint: 9.7°C (49°F) [RH = 89%]
Pressure (altimeter): 29.84 inches Hg (1010.6 mb)
[Sea-level pressure: 1010.7 mb]
Winds: calm
Visibility: 6 miles (10 km)
Ceiling: 700 feet AGL
Clouds: overcast cloud deck at 700 feet AGL
Weather: BR  (mist)

METAR text: KFFO 251053Z 00000KT 6SM BR OVC007 12/10 A2984 RMK AO2A SLP107
Conditions at: KFFO (WRIGHT PATTERSON, OH, US) observed 1053 UTC 25 April 2019
Temperature: 12.0°C (54°F)
Dewpoint: 10.0°C (50°F) [RH = 88%]
Pressure (altimeter): 29.84 inches Hg (1010.6 mb)
[Sea-level pressure: 1010.7 mb]
Winds: calm
Visibility: 6 miles (10 km)
Ceiling: 700 feet AGL
Clouds: overcast cloud deck at 700 feet AGL
Weather: BR  (mist)

METAR text: KFFO 251015Z 00000KT 10SM -RA BKN009 OVC012 12/09 A2984 RMK AO2A SLP107
Conditions at: KFFO (WRIGHT PATTERSON, OH, US) observed 1015 UTC 25 April 2019
Temperature: 12.0°C (54°F)
Dewpoint: 9.0°C (48°F) [RH = 82%]
Pressure (altimeter): 29.84 inches Hg (1010.6 mb)
[Sea-level pressure: 1010.7 mb]
Winds: calm
Visibility: 10 or more miles (16+ km)
Ceiling: 900 feet AGL
Clouds: broken clouds at 900 feet AGL
overcast cloud deck at 1200 feet AGL
Weather: -RA  (light rain)

METAR text: KFFO 251006Z 00000KT 10SM BKN010 OVC075 12/09 A2984 RMK AO2A CIG 010V075 BKN V SCT SLP107
Conditions at: KFFO (WRIGHT PATTERSON, OH, US) observed 1006 UTC 25 April 2019
Temperature: 12.0°C (54°F)
Dewpoint: 9.0°C (48°F) [RH = 82%]
Pressure (altimeter): 29.84 inches Hg (1010.6 mb)
[Sea-level pressure: 1010.7 mb]
Winds: calm
Visibility: 10 or more miles (16+ km)
Ceiling: 1000 feet AGL
Clouds: broken clouds at 1000 feet AGL
overcast cloud deck at 7500 feet AGL
Weather: no significant weather observed at this time

METAR text: KFFO 250956Z 00000KT 10SM -RA SCT010 BKN018 OVC075 12/09 A2985 RMK AO2A SLP110 P0000 T01180088
Conditions at: KFFO (WRIGHT PATTERSON, OH, US) observed 0956 UTC 25 April 2019
Temperature: 11.8°C (53°F)
Dewpoint: 8.8°C (48°F) [RH = 82%]
Pressure (altimeter): 29.85 inches Hg (1010.9 mb)
[Sea-level pressure: 1011.0 mb]
Winds: calm
Visibility: 10 or more miles (16+ km)
Ceiling: 1800 feet AGL
Clouds: scattered clouds at 1000 feet AGL
broken clouds at 1800 feet AGL
overcast cloud deck at 7500 feet AGL
Weather: -RA  (light rain)

METAR text: KFFO 250920Z 00000KT 10SM -RA OVC016 12/09 A2984 RMK AO2A SLP107
Conditions at: KFFO (WRIGHT PATTERSON, OH, US) observed 0920 UTC 25 April 2019
Temperature: 12.0°C (54°F)
Dewpoint: 9.0°C (48°F) [RH = 82%]
Pressure (altimeter): 29.84 inches Hg (1010.6 mb)
[Sea-level pressure: 1010.7 mb]
Winds: calm
Visibility: 10 or more miles (16+ km)
Ceiling: 1600 feet AGL
Clouds: overcast cloud deck at 1600 feet AGL
Weather: -RA  (light rain)

METAR text: KFFO 250856Z 00000KT 10SM OVC016 12/08 A2985 RMK AO2A SLP110 T01220081 55008
Conditions at: KFFO (WRIGHT PATTERSON, OH, US) observed 0856 UTC 25 April 2019
Temperature: 12.2°C (54°F)
Dewpoint: 8.1°C (47°F) [RH = 76%]
Pressure (altimeter): 29.85 inches Hg (1010.9 mb)
[Sea-level pressure: 1011.0 mb]
Winds: calm
Visibility: 10 or more miles (16+ km)
Ceiling: 1600 feet AGL
Clouds: overcast cloud deck at 1600 feet AGL
Weather: no significant weather observed at this time

METAR text: KFFO 250826Z 00000KT 10SM OVC015 12/09 A2985 RMK AO2A SLP110
Conditions at: KFFO (WRIGHT PATTERSON, OH, US) observed 0826 UTC 25 April 2019
Temperature: 12.0°C (54°F)
Dewpoint: 9.0°C (48°F) [RH = 82%]
Pressure (altimeter): 29.85 inches Hg (1010.9 mb)
[Sea-level pressure: 1011.0 mb]
Winds: calm
Visibility: 10 or more miles (16+ km)
Ceiling: 1500 feet AGL
Clouds: overcast cloud deck at 1500 feet AGL
Weather: no significant weather observed at this time

METAR text: KFFO 250756Z 00000KT 10SM BKN014 OVC085 12/08 A2985 RMK AO2A SLP110 T01190080
Conditions at: KFFO (WRIGHT PATTERSON, OH, US) observed 0756 UTC 25 April 2019
Temperature: 11.9°C (53°F)
Dewpoint: 8.0°C (46°F) [RH = 77%]
Pressure (altimeter): 29.85 inches Hg (1010.9 mb)
[Sea-level pressure: 1011.0 mb]
Winds: calm
Visibility: 10 or more miles (16+ km)
Ceiling: 1400 feet AGL
Clouds: broken clouds at 1400 feet AGL
overcast cloud deck at 8500 feet AGL
Weather: no significant weather observed at this time

METAR text: KFFO 250751Z 00000KT 10SM SCT013 OVC060 12/08 A2985 RMK AO2A SCT V BKN SLP110
Conditions at: KFFO (WRIGHT PATTERSON, OH, US) observed 0751 UTC 25 April 2019
Temperature: 12.0°C (54°F)
Dewpoint: 8.0°C (46°F) [RH = 76%]
Pressure (altimeter): 29.85 inches Hg (1010.9 mb)
[Sea-level pressure: 1011.0 mb]
Winds: calm
Visibility: 10 or more miles (16+ km)
Ceiling: 6000 feet AGL
Clouds: scattered clouds at 1300 feet AGL
overcast cloud deck at 6000 feet AGL
Weather: no significant weather observed at this time

METAR text: KFFO 250656Z 12004KT 10SM SCT016 OVC080 12/08 A2985 RMK AO2A SLP111 T01180075
Conditions at: KFFO (WRIGHT PATTERSON, OH, US) observed 0656 UTC 25 April 2019
Temperature: 11.8°C (53°F)
Dewpoint: 7.5°C (46°F) [RH = 75%]
Pressure (altimeter): 29.85 inches Hg (1010.9 mb)
[Sea-level pressure: 1011.1 mb]
Winds: from the ESE (120 degrees) at 5 MPH (4 knots; 2.1 m/s)
Visibility: 10 or more miles (16+ km)
Ceiling: 8000 feet AGL
Clouds: scattered clouds at 1600 feet AGL
overcast cloud deck at 8000 feet AGL
Weather: no significant weather observed at this time

METAR text: KFFO 250556Z 12006KT 10SM FEW027 OVC080 12/06 A2987 RMK AO2A SLP118 P0000 60000 T01240064 10153 20124 57006
Conditions at: KFFO (WRIGHT PATTERSON, OH, US) observed 0556 UTC 25 April 2019
Temperature: 12.4°C (54°F)
Dewpoint: 6.4°C (44°F) [RH = 67%]
Pressure (altimeter): 29.87 inches Hg (1011.6 mb)
[Sea-level pressure: 1011.8 mb]
Winds: from the ESE (120 degrees) at 7 MPH (6 knots; 3.1 m/s)
Visibility: 10 or more miles (16+ km)
Ceiling: 8000 feet AGL
Clouds: few clouds at 2700 feet AGL
overcast cloud deck at 8000 feet AGL
Weather: no significant weather observed at this time

METAR text: KFFO 250540Z 11005KT 10SM FEW027 OVC085 13/06 A2988 RMK AO2A SLP121
Conditions at: KFFO (WRIGHT PATTERSON, OH, US) observed 0540 UTC 25 April 2019
Temperature: 13.0°C (55°F)
Dewpoint: 6.0°C (43°F) [RH = 62%]
Pressure (altimeter): 29.88 inches Hg (1011.9 mb)
[Sea-level pressure: 1012.1 mb]
Winds: from the ESE (110 degrees) at 6 MPH (5 knots; 2.6 m/s)
Visibility: 10 or more miles (16+ km)
Ceiling: 8500 feet AGL
Clouds: few clouds at 2700 feet AGL
overcast cloud deck at 8500 feet AGL
Weather: no significant weather observed at this time

METAR text: KFFO 250456Z 14007KT 10SM -RA SCT027 OVC085 13/06 A2988 RMK AO2A SCT V BKN SLP121 P0000 T01310060 401670042
Conditions at: KFFO (WRIGHT PATTERSON, OH, US) observed 0456 UTC 25 April 2019
Temperature: 13.1°C (56°F)
Dewpoint: 6.0°C (43°F) [RH = 62%]
Pressure (altimeter): 29.88 inches Hg (1011.9 mb)
[Sea-level pressure: 1012.1 mb]
Winds: from the SE (140 degrees) at 8 MPH (7 knots; 3.6 m/s)
Visibility: 10 or more miles (16+ km)
Ceiling: 8500 feet AGL
Clouds: scattered clouds at 2700 feet AGL
overcast cloud deck at 8500 feet AGL
Weather: -RA  (light rain)

METAR text: KFFO 250406Z COR 04003KT 10SM OVC027 14/06 A2989 RMK AO2A OVC V BKN SLP125 COR 0431
Conditions at: KFFO (WRIGHT PATTERSON, OH, US) observed 0406 UTC 25 April 2019
Temperature: 14.0°C (57°F)
Dewpoint: 6.0°C (43°F) [RH = 58%]
Pressure (altimeter): 29.89 inches Hg (1012.3 mb)
[Sea-level pressure: 1012.5 mb]
Winds: from the NE (40 degrees) at 3 MPH (3 knots; 1.5 m/s)
Visibility: 10 or more miles (16+ km)
Ceiling: 2700 feet AGL
Clouds: overcast cloud deck at 2700 feet AGL
Weather: no significant weather observed at this time

METAR text: KFFO 250356Z 00000KT 10SM BKN030 OVC045 14/05 A2989 RMK AO2A SLP125 P0000 T01360047
Conditions at: KFFO (WRIGHT PATTERSON, OH, US) observed 0356 UTC 25 April 2019
Temperature: 13.6°C (56°F)
Dewpoint: 4.7°C (40°F) [RH = 55%]
Pressure (altimeter): 29.89 inches Hg (1012.3 mb)
[Sea-level pressure: 1012.5 mb]
Winds: calm
Visibility: 10 or more miles (16+ km)
Ceiling: 3000 feet AGL
Clouds: broken clouds at 3000 feet AGL
overcast cloud deck at 4500 feet AGL
Weather: no significant weather observed at this time

METAR text: KFFO 250345Z 36003KT 10SM OVC030 13/05 A2988 RMK AO2A SLP122
Conditions at: KFFO (WRIGHT PATTERSON, OH, US) observed 0345 UTC 25 April 2019
Temperature: 13.0°C (55°F)
Dewpoint: 5.0°C (41°F) [RH = 58%]
Pressure (altimeter): 29.88 inches Hg (1011.9 mb)
[Sea-level pressure: 1012.2 mb]
Winds: from the N (360 degrees) at 3 MPH (3 knots; 1.5 m/s)
Visibility: 10 or more miles (16+ km)
Ceiling: 3000 feet AGL
Clouds: overcast cloud deck at 3000 feet AGL
Weather: no significant weather observed at this time

METAR text: KFFO 250256Z 14007KT 10SM -RA SCT045 OVC055 14/05 A2989 RMK AO2A SLP125 T01400046 58005
Conditions at: KFFO (WRIGHT PATTERSON, OH, US) observed 0256 UTC 25 April 2019
Temperature: 14.0°C (57°F)
Dewpoint: 4.6°C (40°F) [RH = 53%]
Pressure (altimeter): 29.89 inches Hg (1012.3 mb)
[Sea-level pressure: 1012.5 mb]
Winds: from the SE (140 degrees) at 8 MPH (7 knots; 3.6 m/s)
Visibility: 10 or more miles (16+ km)
Ceiling: 5500 feet AGL
Clouds: scattered clouds at 4500 feet AGL
overcast cloud deck at 5500 feet AGL
Weather: -RA  (light rain)

METAR text: KFFO 250156Z 05004KT 10SM FEW048 OVC060 14/04 A2991 RMK AO2A SLP132 T01350044
Conditions at: KFFO (WRIGHT PATTERSON, OH, US) observed 0156 UTC 25 April 2019
Temperature: 13.5°C (56°F)
Dewpoint: 4.4°C (40°F) [RH = 54%]
Pressure (altimeter): 29.91 inches Hg (1013.0 mb)
[Sea-level pressure: 1013.2 mb]
Winds: from the NE (50 degrees) at 5 MPH (4 knots; 2.1 m/s)
Visibility: 10 or more miles (16+ km)
Ceiling: 6000 feet AGL
Clouds: few clouds at 4800 feet AGL
overcast cloud deck at 6000 feet AGL
Weather: no significant weather observed at this time

METAR text: KFFO 250056Z 04006KT 10SM SCT060 OVC075 15/05 A2991 RMK AO2A SLP132 T01460046
Conditions at: KFFO (WRIGHT PATTERSON, OH, US) observed 0056 UTC 25 April 2019
Temperature: 14.6°C (58°F)
Dewpoint: 4.6°C (40°F) [RH = 51%]
Pressure (altimeter): 29.91 inches Hg (1013.0 mb)
[Sea-level pressure: 1013.2 mb]
Winds: from the NE (40 degrees) at 7 MPH (6 knots; 3.1 m/s)
Visibility: 10 or more miles (16+ km)
Ceiling: 7500 feet AGL
Clouds: scattered clouds at 6000 feet AGL
overcast cloud deck at 7500 feet AGL
Weather: no significant weather observed at this time

METAR text: KFFO 242356Z 04003KT 10SM FEW032 BKN055 OVC070 15/05 A2990 RMK AO2A SLP129 T01540047 10167 20128 55008
Conditions at: KFFO (WRIGHT PATTERSON, OH, US) observed 2356 UTC 24 April 2019
Temperature: 15.4°C (60°F)
Dewpoint: 4.7°C (40°F) [RH = 49%]
Pressure (altimeter): 29.90 inches Hg (1012.6 mb)
[Sea-level pressure: 1012.9 mb]
Winds: from the NE (40 degrees) at 3 MPH (3 knots; 1.5 m/s)
Visibility: 10 or more miles (16+ km)
Ceiling: 5500 feet AGL
Clouds: few clouds at 3200 feet AGL
broken clouds at 5500 feet AGL
overcast cloud deck at 7000 feet AGL
Weather: no significant weather observed at this time

METAR text: KFFO 242256Z 05004KT 10SM BKN075 OVC100 16/04 A2990 RMK AO2A SLP129 T01580036
Conditions at: KFFO (WRIGHT PATTERSON, OH, US) observed 2256 UTC 24 April 2019
Temperature: 15.8°C (60°F)
Dewpoint: 3.6°C (38°F) [RH = 44%]
Pressure (altimeter): 29.90 inches Hg (1012.6 mb)
[Sea-level pressure: 1012.9 mb]
Winds: from the NE (50 degrees) at 5 MPH (4 knots; 2.1 m/s)
Visibility: 10 or more miles (16+ km)
Ceiling: 7500 feet AGL
Clouds: broken clouds at 7500 feet AGL
overcast cloud deck at 10000 feet AGL
Weather: no significant weather observed at this time

METAR text: KFFO 242156Z 06003KT 10SM OVC075 17/03 A2991 RMK AO2A SLP133 P0000 T01650028
Conditions at: KFFO (WRIGHT PATTERSON, OH, US) observed 2156 UTC 24 April 2019
Temperature: 16.5°C (62°F)
Dewpoint: 2.8°C (37°F) [RH = 40%]
Pressure (altimeter): 29.91 inches Hg (1013.0 mb)
[Sea-level pressure: 1013.3 mb]
Winds: from the ENE (60 degrees) at 3 MPH (3 knots; 1.5 m/s)
Visibility: 10 or more miles (16+ km)
Ceiling: 7500 feet AGL
Clouds: overcast cloud deck at 7500 feet AGL
Weather: no significant weather observed at this time

METAR text: KFFO 242056Z 00000KT 10SM BKN044 OVC100 16/04 A2993 RMK AO2A SLP139 T01580036 57029
Conditions at: KFFO (WRIGHT PATTERSON, OH, US) observed 2056 UTC 24 April 2019
Temperature: 15.8°C (60°F)
Dewpoint: 3.6°C (38°F) [RH = 44%]
Pressure (altimeter): 29.93 inches Hg (1013.6 mb)
[Sea-level pressure: 1013.9 mb]
Winds: calm
Visibility: 10 or more miles (16+ km)
Ceiling: 4400 feet AGL
Clouds: broken clouds at 4400 feet AGL
overcast cloud deck at 10000 feet AGL
Weather: no significant weather observed at this time

METAR text: KFFO 241956Z 00000KT 10SM FEW080 OVC140 15/04 A2994 RMK AO2A SLP143 T01530040
Conditions at: KFFO (WRIGHT PATTERSON, OH, US) observed 1956 UTC 24 April 2019
Temperature: 15.3°C (60°F)
Dewpoint: 4.0°C (39°F) [RH = 47%]
Pressure (altimeter): 29.94 inches Hg (1014.0 mb)
[Sea-level pressure: 1014.3 mb]
Winds: calm
Visibility: 10 or more miles (16+ km)
Ceiling: 14000 feet AGL
Clouds: few clouds at 8000 feet AGL
overcast cloud deck at 14000 feet AGL
Weather: no significant weather observed at this time

METAR text: KFFO 241856Z 00000KT 10SM FEW075 OVC120 14/05 A2998 RMK AO2A SLP156 T01360052
Conditions at: KFFO (WRIGHT PATTERSON, OH, US) observed 1856 UTC 24 April 2019
Temperature: 13.6°C (56°F)
Dewpoint: 5.2°C (41°F) [RH = 57%]
Pressure (altimeter): 29.98 inches Hg (1015.3 mb)
[Sea-level pressure: 1015.6 mb]
Winds: calm
Visibility: 10 or more miles (16+ km)
Ceiling: 12000 feet AGL
Clouds: few clouds at 7500 feet AGL
overcast cloud deck at 12000 feet AGL
Weather: no significant weather observed at this time

METAR text: KFFO 241756Z 00000KT 10SM SCT080 OVC100 13/04 A3002 RMK AO2A SLP170 T01290041 10131 20081 58004
Conditions at: KFFO (WRIGHT PATTERSON, OH, US) observed 1756 UTC 24 April 2019
Temperature: 12.9°C (55°F)
Dewpoint: 4.1°C (39°F) [RH = 55%]
Pressure (altimeter): 30.02 inches Hg (1016.7 mb)
[Sea-level pressure: 1017.0 mb]
Winds: calm
Visibility: 10 or more miles (16+ km)
Ceiling: 10000 feet AGL
Clouds: scattered clouds at 8000 feet AGL
overcast cloud deck at 10000 feet AGL
Weather: no significant weather observed at this time

METAR text: KFFO 241656Z 00000KT 10SM OVC095 12/05 A3002 RMK AO2A SLP170 T01230048
Conditions at: KFFO (WRIGHT PATTERSON, OH, US) observed 1656 UTC 24 April 2019
Temperature: 12.3°C (54°F)
Dewpoint: 4.8°C (41°F) [RH = 60%]
Pressure (altimeter): 30.02 inches Hg (1016.7 mb)
[Sea-level pressure: 1017.0 mb]
Winds: calm
Visibility: 10 or more miles (16+ km)
Ceiling: 9500 feet AGL
Clouds: overcast cloud deck at 9500 feet AGL
Weather: no significant weather observed at this time

METAR text: KFFO 241556Z 00000KT 10SM FEW080 OVC100 12/05 A3004 RMK AO2A SLP176 T01180054
Conditions at: KFFO (WRIGHT PATTERSON, OH, US) observed 1556 UTC 24 April 2019
Temperature: 11.8°C (53°F)
Dewpoint: 5.4°C (42°F) [RH = 65%]
Pressure (altimeter): 30.04 inches Hg (1017.4 mb)
[Sea-level pressure: 1017.6 mb]
Winds: calm
Visibility: 10 or more miles (16+ km)
Ceiling: 10000 feet AGL
Clouds: few clouds at 8000 feet AGL
overcast cloud deck at 10000 feet AGL
Weather: no significant weather observed at this time

Forecast for: KFFO (WRIGHT PATTERSON, OH, US)
Text: TAF KFFO 260300Z 2603/2709 24009KT 4800 -SHRA BR SCT020 BKN040 OVC085 641203 611508 520203 513504 QNH2948INS
Forecast period: 0300 to 0700 UTC 26 April 2019
Forecast type: FROM: standard forecast or significant change
Winds: from the WSW (240 degrees) at 10 MPH (9 knots; 4.6 m/s)
Visibility: 2.98 miles (4.80 km)
Ceiling: 4000 feet AGL
Clouds: scattered clouds at 2000 feet AGL
broken clouds at 4000 feet AGL
overcast cloud deck at 8500 feet AGL
Weather: -SHRA BR  (light rain showers, mist)
Text: TEMPO 2603/2604 21025G35KT -TSRA SCT010 BKN020CB OVC040
Forecast period: 0300 to 0400 UTC 26 April 2019
Forecast type: TEMPORARY: The following changes expected for less than half the time period
Winds: from the SSW (210 degrees) at 29 MPH (25 knots; 12.9 m/s)
gusting to 40 MPH (35 knots; 18.0 m/s)
Visibility: missing
Ceiling: 2000 feet AGL
Clouds: scattered clouds at 1000 feet AGL
broken clouds at 2000 feet AGL
overcast cloud deck at 4000 feet AGL
Weather: -TSRA  (light rain associated with thunderstorm(s))
Text: BECMG 2607/2608 27012KT 6000 -SHRA BR BKN007 OVC015 641004 611403 510202 523503 QNH2946INS
Forecast period: 0700 to 1100 UTC 26 April 2019
Forecast type: BECOMING: Conditions expected to become as follows by 0800 UTC 26 April 2019
Winds: from the W (270 degrees) at 14 MPH (12 knots; 6.2 m/s)
Visibility: 4 miles (6 km)
Ceiling: 700 feet AGL
Clouds: broken clouds at 700 feet AGL
overcast cloud deck at 1500 feet AGL
Weather: -SHRA BR  (light rain showers, mist)
Text: BECMG 2611/2612 30012G25KT 8000 -SHRA BKN010 OVC020 640903 611206 510202 522202 QNH2952INS
Forecast period: 1100 to 1600 UTC 26 April 2019
Forecast type: BECOMING: Conditions expected to become as follows by 1200 UTC 26 April 2019
Winds: from the WNW (300 degrees) at 14 MPH (12 knots; 6.2 m/s)
gusting to 29 MPH (25 knots; 12.9 m/s)
Visibility: 5 miles (8 km)
Ceiling: 1000 feet AGL
Clouds: broken clouds at 1000 feet AGL
overcast cloud deck at 2000 feet AGL
Weather: -SHRA  (light rain showers)
Text: BECMG 2616/2617 30015G35KT 9999 NSW FEW010 SCT020 SCT200 530005 521704 QNH2965INS
Forecast period: 1600 to 2300 UTC 26 April 2019
Forecast type: BECOMING: Conditions expected to become as follows by 1700 UTC 26 April 2019
Winds: from the WNW (300 degrees) at 17 MPH (15 knots; 7.7 m/s)
gusting to 40 MPH (35 knots; 18.0 m/s)
Visibility: 6 or more miles 10+ km)
Ceiling: at least 12,000 feet AGL
Clouds: few clouds at 1000 feet AGL
scattered clouds at 2000 feet AGL
scattered clouds at 20000 feet AGL
Weather: NSW  (no significant weather)
Text: BECMG 2623/2624 29012KT 9999 FEW030 SCT150 510103 QNH2979INS TX17/2603Z TN08/2703Z
Forecast period: 2300 UTC 26 April 2019 to 0900 UTC 27 April 2019
Forecast type: BECOMING: Conditions expected to become as follows by 0000 UTC 27 April 2019
Winds: from the WNW (290 degrees) at 14 MPH (12 knots; 6.2 m/s)
Visibility: 6 or more miles 10+ km)
Ceiling: at least 12,000 feet AGL
Clouds: few clouds at 3000 feet AGL
scattered clouds at 15000 feet AGL
Weather: NSW  (no significant weather)